Share

Key West, FL

Key West International (KEYW) Elev 0 ft | 24.56 °N, 81.75 °W | Change Station

Current weather conditions updated 22 minutes ago

Mostly Cloudy
Mostly Cloudy
77 °F
Feels Like 77 °F
N
13
Wind Variable Wind from NW
Sunrise 7:00 AM
Sunset 7:51 PM
Moon Waning Gibbous

Today is forecast to be Cooler than yesterday.

Pressure 30.05 in
Visibility 10.0 miles
Clouds Few 3100 ft
Mostly Cloudy 4100 ft
Dew Point 63 °F
Humidity 62%
Rainfall 0.00 in
Snow Depth Not available.
UV 8 out of 16
Pollen 6.20 out of 12
Air Quality Not available.
Flu Activity Sporadic
METAR KEYW 201853Z 31011KT 10SM FEW031 BKN041 25/17 A3005 RMK AO2 SLP175 T02500172

More Conditions Fewer Conditions

Pressure 30.05 in
Visibility 10.0 miles
Clouds Few 3100 ft
Mostly Cloudy 4100 ft
Dew Point 63 °F
Humidity 62%
Rainfall 0.00 in
Snow Depth Not available.
UV 8 out of 16
Pollen 6.20 out of 12
Air Quality Not available.
Flu Activity Sporadic
METAR KEYW 201853Z 31011KT 10SM FEW031 BKN041 25/17 A3005 RMK AO2 SLP175 T02500172

More Conditions Fewer Conditions

10-Day Weather Forecast

Almanac

Astronomy

Apr. 20, 2014 Rise Set
Actual Time 7:00 AM EDT 7:51 PM EDT
Civil Twilight 6:37 AM EDT 8:14 PM EDT
Nautical Twilight 6:09 AM EDT 8:42 PM EDT
Astronomical Twilight 5:41 AM EDT 9:10 PM EDT
Moon 12:17 AM EDT 11:31 AM EDT
Length of Visible Light 13h 37m
Length of Day
12h 50m
Tomorrow will be 1m 19s longer.
Waning Gibbous, 67% of the Moon is Illuminated
Today
Waning Gibbous
Apr 22
Last Quarter
Apr 29
New
May 6
First Quarter
May 14
Full

Today's Extremes

State Highs State Lows

Community

  • Morning Sun
    Morning Sun
  • after rain
    after rain
  • Columbine
    Columbine
  • Easter Sunrise
    Easter Sunrise
  • Easter Eve - The Promise - Lake Palestine, TX
    Easter Eve - The Promise - Lake Palestine, TX

WunderPhotos

Upload Photos

1,703,311 photos uploaded!

WunderBlogs® & News

Nearby

Snow Depth

Station Depth Elevation
No new snow has been reported.

Coastal Water Temperatures

Place Temperature
No Stations Reporting

Earthquake Activity

City Distance Mag. Time & Date
No recent earthquake activity has been reported nearby.
Minimum magnitude displayed is 2.5.

Nearby Weather Stations

Station Location Temp. Heat Index Dew Point Humidity Wind Precip. Elev Updated Type
Key West, FL 79.8 °F 82 °F 66 °F 62% NW  at  3.0 mph 0.00 in / hr 6 ft 3:07 PM EDT Normal
Big Coppitt Key Gulfside, Key West, FL 77.0 °F 79 °F 64 °F 64% WNW  at  11.4 mph - / hr 31 ft 3:14 PM EDT Normal
Cudjoe Key, FL 77.0 °F 79 °F 63 °F 62% West  at  8.0 mph 0.00 in / hr 16 ft 3:15 PM EDT Rapid Fire
Breezeswept Estates - Bird Lake - Ramrod, Ramrod Key, FL 75.9 °F 78 °F 62 °F 63% NW  at  12.4 mph 0.00 in / hr 25 ft 3:15 PM EDT Rapid Fire

Show More Stations Show Fewer Stations

What do you think?

We're not finished. Please let us know what you like, what you don't like, and what you are still missing.